sensor_id;sensor_type;location;lat;lon;timestamp;pressure;altitude;pressure_sealevel;temperature
81657;BMP280;71067;51.482;-0.580;2024-02-16T00:02:05;100425.47;;;12.84
81657;BMP280;71067;51.482;-0.580;2024-02-16T00:04:33;100471.38;;;13.13
81657;BMP280;71067;51.482;-0.580;2024-02-16T00:07:07;100462.59;;;13.14
81657;BMP280;71067;51.482;-0.580;2024-02-16T00:09:34;100399.97;;;12.73
81657;BMP280;71067;51.482;-0.580;2024-02-16T00:12:17;100409.59;;;12.79
81657;BMP280;71067;51.482;-0.580;2024-02-16T00:15:01;100447.72;;;13.08
81657;BMP280;71067;51.482;-0.580;2024-02-16T00:17:26;100410.59;;;12.78
81657;BMP280;71067;51.482;-0.580;2024-02-16T00:23:07;100412.28;;;12.86
81657;BMP280;71067;51.482;-0.580;2024-02-16T00:25:32;100401.22;;;12.77
81657;BMP280;71067;51.482;-0.580;2024-02-16T00:27:59;100428.59;;;12.94
81657;BMP280;71067;51.482;-0.580;2024-02-16T00:30:24;100421.97;;;12.92
81657;BMP280;71067;51.482;-0.580;2024-02-16T00:32:50;100436.63;;;13.00
81657;BMP280;71067;51.482;-0.580;2024-02-16T00:35:17;100436.19;;;12.96
81657;BMP280;71067;51.482;-0.580;2024-02-16T00:37:44;100421.72;;;12.87
81657;BMP280;71067;51.482;-0.580;2024-02-16T00:40:12;100429.56;;;12.93
81657;BMP280;71067;51.482;-0.580;2024-02-16T00:42:38;100399.34;;;12.71
81657;BMP280;71067;51.482;-0.580;2024-02-16T00:45:06;100463.59;;;13.13
81657;BMP280;71067;51.482;-0.580;2024-02-16T00:47:32;100452.28;;;13.06
81657;BMP280;71067;51.482;-0.580;2024-02-16T00:50:04;100460.28;;;13.05
81657;BMP280;71067;51.482;-0.580;2024-02-16T00:52:35;100477.22;;;13.15
81657;BMP280;71067;51.482;-0.580;2024-02-16T00:58:24;100423.59;;;12.78
81657;BMP280;71067;51.482;-0.580;2024-02-16T01:01:16;100413.56;;;12.75
81657;BMP280;71067;51.482;-0.580;2024-02-16T01:04:12;100450.16;;;12.95
81657;BMP280;71067;51.482;-0.580;2024-02-16T01:06:45;100416.16;;;12.75
81657;BMP280;71067;51.482;-0.580;2024-02-16T01:12:51;100407.66;;;12.81
81657;BMP280;71067;51.482;-0.580;2024-02-16T01:15:20;100469.41;;;13.15
81657;BMP280;71067;51.482;-0.580;2024-02-16T01:20:34;100406.41;;;12.77
81657;BMP280;71067;51.482;-0.580;2024-02-16T01:23:18;100458.28;;;13.07
81657;BMP280;71067;51.482;-0.580;2024-02-16T01:25:43;100447.28;;;13.05
81657;BMP280;71067;51.482;-0.580;2024-02-16T01:28:09;100413.47;;;12.83
81657;BMP280;71067;51.482;-0.580;2024-02-16T01:30:40;100428.59;;;12.94
81657;BMP280;71067;51.482;-0.580;2024-02-16T01:33:07;100474.84;;;13.20
81657;BMP280;71067;51.482;-0.580;2024-02-16T01:35:34;100435.72;;;12.92
81657;BMP280;71067;51.482;-0.580;2024-02-16T01:37:59;100427.22;;;12.98
81657;BMP280;71067;51.482;-0.580;2024-02-16T01:40:28;100464.03;;;13.17
81657;BMP280;71067;51.482;-0.580;2024-02-16T01:42:54;100435.38;;;12.95
81657;BMP280;71067;51.482;-0.580;2024-02-16T01:45:21;100434.66;;;13.02
81657;BMP280;71067;51.482;-0.580;2024-02-16T01:47:50;100404.88;;;12.83
81657;BMP280;71067;51.482;-0.580;2024-02-16T01:50:17;100405.06;;;12.81
81657;BMP280;71067;51.482;-0.580;2024-02-16T01:52:54;100420.91;;;12.86
81657;BMP280;71067;51.482;-0.580;2024-02-16T01:55:43;100485.69;;;13.24
81657;BMP280;71067;51.482;-0.580;2024-02-16T01:59:04;100431.28;;;12.86
81657;BMP280;71067;51.482;-0.580;2024-02-16T02:01:22;100484.09;;;13.23
81657;BMP280;71067;51.482;-0.580;2024-02-16T02:03:51;100439.34;;;12.91
81657;BMP280;71067;51.482;-0.580;2024-02-16T02:06:16;100428.44;;;12.81
81657;BMP280;71067;51.482;-0.580;2024-02-16T02:08:50;100426.19;;;12.78
81657;BMP280;71067;51.482;-0.580;2024-02-16T02:14:48;100450.81;;;12.82
81657;BMP280;71067;51.482;-0.580;2024-02-16T02:17:13;100464.88;;;12.88
81657;BMP280;71067;51.482;-0.580;2024-02-16T02:19:39;100477.88;;;13.03
81657;BMP280;71067;51.482;-0.580;2024-02-16T02:22:12;100473.00;;;13.00
81657;BMP280;71067;51.482;-0.580;2024-02-16T02:24:39;100456.00;;;12.82
81657;BMP280;71067;51.482;-0.580;2024-02-16T02:27:07;100516.44;;;13.20
81657;BMP280;71067;51.482;-0.580;2024-02-16T02:29:51;100484.13;;;12.93
81657;BMP280;71067;51.482;-0.580;2024-02-16T02:32:26;100493.81;;;13.00
81657;BMP280;71067;51.482;-0.580;2024-02-16T02:35:18;100487.44;;;12.87
81657;BMP280;71067;51.482;-0.580;2024-02-16T02:37:45;100486.47;;;12.88
81657;BMP280;71067;51.482;-0.580;2024-02-16T02:40:20;100507.63;;;13.00
81657;BMP280;71067;51.482;-0.580;2024-02-16T02:46:29;100487.38;;;12.81
81657;BMP280;71067;51.482;-0.580;2024-02-16T02:48:54;100497.31;;;12.92
81657;BMP280;71067;51.482;-0.580;2024-02-16T02:51:20;100518.06;;;13.07
81657;BMP280;71067;51.482;-0.580;2024-02-16T02:53:45;100540.00;;;13.19
81657;BMP280;71067;51.482;-0.580;2024-02-16T02:56:11;100477.31;;;12.78
81657;BMP280;71067;51.482;-0.580;2024-02-16T02:58:40;100501.34;;;12.94
81657;BMP280;71067;51.482;-0.580;2024-02-16T03:01:06;100466.34;;;12.76
81657;BMP280;71067;51.482;-0.580;2024-02-16T03:06:19;100535.63;;;13.19
81657;BMP280;71067;51.482;-0.580;2024-02-16T03:08:50;100498.50;;;12.89
81657;BMP280;71067;51.482;-0.580;2024-02-16T03:11:15;100496.94;;;12.80
81657;BMP280;71067;51.482;-0.580;2024-02-16T03:13:42;100528.56;;;12.98
81657;BMP280;71067;51.482;-0.580;2024-02-16T03:16:08;100513.69;;;12.92
81657;BMP280;71067;51.482;-0.580;2024-02-16T03:18:34;100522.47;;;12.91
81657;BMP280;71067;51.482;-0.580;2024-02-16T03:21:02;100523.03;;;12.87
81657;BMP280;71067;51.482;-0.580;2024-02-16T03:23:28;100557.25;;;13.05
81657;BMP280;71067;51.482;-0.580;2024-02-16T03:25:53;100563.06;;;13.07
81657;BMP280;71067;51.482;-0.580;2024-02-16T03:28:19;100566.22;;;13.03
81657;BMP280;71067;51.482;-0.580;2024-02-16T03:30:53;100593.38;;;13.15
81657;BMP280;71067;51.482;-0.580;2024-02-16T03:33:20;100548.75;;;12.82
81657;BMP280;71067;51.482;-0.580;2024-02-16T03:35:45;100604.09;;;13.12
81657;BMP280;71067;51.482;-0.580;2024-02-16T03:38:11;100575.88;;;12.94
81657;BMP280;71067;51.482;-0.580;2024-02-16T03:40:36;100604.91;;;13.12
81657;BMP280;71067;51.482;-0.580;2024-02-16T03:43:02;100566.28;;;12.80
81657;BMP280;71067;51.482;-0.580;2024-02-16T03:45:27;100553.38;;;12.72
81657;BMP280;71067;51.482;-0.580;2024-02-16T03:47:53;100569.75;;;12.72
81657;BMP280;71067;51.482;-0.580;2024-02-16T03:50:19;100598.13;;;12.97
81657;BMP280;71067;51.482;-0.580;2024-02-16T03:52:45;100588.13;;;12.85
81657;BMP280;71067;51.482;-0.580;2024-02-16T03:55:11;100618.63;;;12.91
81657;BMP280;71067;51.482;-0.580;2024-02-16T03:57:47;100604.63;;;12.78
81657;BMP280;71067;51.482;-0.580;2024-02-16T04:00:13;100624.50;;;12.85
81657;BMP280;71067;51.482;-0.580;2024-02-16T04:02:39;100598.44;;;12.64
81657;BMP280;71067;51.482;-0.580;2024-02-16T04:05:05;100620.19;;;12.78
81657;BMP280;71067;51.482;-0.580;2024-02-16T04:07:33;100622.72;;;12.71
81657;BMP280;71067;51.482;-0.580;2024-02-16T04:09:58;100657.06;;;12.81
81657;BMP280;71067;51.482;-0.580;2024-02-16T04:12:25;100649.47;;;12.72
81657;BMP280;71067;51.482;-0.580;2024-02-16T04:14:51;100659.72;;;12.73
81657;BMP280;71067;51.482;-0.580;2024-02-16T04:17:16;100668.31;;;12.74
81657;BMP280;71067;51.482;-0.580;2024-02-16T04:19:42;100672.78;;;12.80
81657;BMP280;71067;51.482;-0.580;2024-02-16T04:22:07;100665.06;;;12.72
81657;BMP280;71067;51.482;-0.580;2024-02-16T04:24:33;100623.75;;;12.48
81657;BMP280;71067;51.482;-0.580;2024-02-16T04:26:58;100658.69;;;12.60
81657;BMP280;71067;51.482;-0.580;2024-02-16T04:29:24;100637.25;;;12.43
81657;BMP280;71067;51.482;-0.580;2024-02-16T04:31:49;100627.09;;;12.34
81657;BMP280;71067;51.482;-0.580;2024-02-16T04:34:14;100664.41;;;12.55
81657;BMP280;71067;51.482;-0.580;2024-02-16T04:36:40;100671.84;;;12.58
81657;BMP280;71067;51.482;-0.580;2024-02-16T04:39:06;100697.69;;;12.74
81657;BMP280;71067;51.482;-0.580;2024-02-16T04:41:31;100673.34;;;12.53
81657;BMP280;71067;51.482;-0.580;2024-02-16T04:43:56;100698.81;;;12.57
81657;BMP280;71067;51.482;-0.580;2024-02-16T04:46:22;100698.50;;;12.52
81657;BMP280;71067;51.482;-0.580;2024-02-16T04:48:47;100698.50;;;12.52
81657;BMP280;71067;51.482;-0.580;2024-02-16T04:51:13;100725.34;;;12.67
81657;BMP280;71067;51.482;-0.580;2024-02-16T04:53:38;100724.09;;;12.63
81657;BMP280;71067;51.482;-0.580;2024-02-16T04:56:04;100721.00;;;12.60
81657;BMP280;71067;51.482;-0.580;2024-02-16T04:58:30;100713.00;;;12.47
81657;BMP280;71067;51.482;-0.580;2024-02-16T05:00:55;100744.56;;;12.58
81657;BMP280;71067;51.482;-0.580;2024-02-16T05:03:21;100740.06;;;12.52
81657;BMP280;71067;51.482;-0.580;2024-02-16T05:05:46;100756.28;;;12.54
81657;BMP280;71067;51.482;-0.580;2024-02-16T05:08:11;100739.91;;;12.46
81657;BMP280;71067;51.482;-0.580;2024-02-16T05:10:37;100743.59;;;12.37
81657;BMP280;71067;51.482;-0.580;2024-02-16T05:13:03;100737.56;;;12.36
81657;BMP280;71067;51.482;-0.580;2024-02-16T05:15:28;100771.56;;;12.49
81657;BMP280;71067;51.482;-0.580;2024-02-16T05:17:54;100792.63;;;12.54
81657;BMP280;71067;51.482;-0.580;2024-02-16T05:20:19;100760.63;;;12.31
81657;BMP280;71067;51.482;-0.580;2024-02-16T05:22:51;100772.63;;;12.32
81657;BMP280;71067;51.482;-0.580;2024-02-16T05:25:17;100784.63;;;12.33
81657;BMP280;71067;51.482;-0.580;2024-02-16T05:27:45;100812.19;;;12.42
81657;BMP280;71067;51.482;-0.580;2024-02-16T05:30:13;100785.66;;;12.24
81657;BMP280;71067;51.482;-0.580;2024-02-16T05:32:41;100783.41;;;12.21
81657;BMP280;71067;51.482;-0.580;2024-02-16T05:35:07;100761.31;;;12.17
81657;BMP280;71067;51.482;-0.580;2024-02-16T05:37:44;100775.97;;;12.10
81657;BMP280;71067;51.482;-0.580;2024-02-16T05:40:10;100750.91;;;11.94
81657;BMP280;71067;51.482;-0.580;2024-02-16T05:42:55;100795.59;;;12.13
81657;BMP280;71067;51.482;-0.580;2024-02-16T05:45:24;100796.09;;;12.08
81657;BMP280;71067;51.482;-0.580;2024-02-16T05:47:53;100797.88;;;12.08
81657;BMP280;71067;51.482;-0.580;2024-02-16T05:50:20;100812.44;;;12.17
81657;BMP280;71067;51.482;-0.580;2024-02-16T05:52:46;100839.81;;;12.27
81657;BMP280;71067;51.482;-0.580;2024-02-16T05:55:12;100810.22;;;12.06
81657;BMP280;71067;51.482;-0.580;2024-02-16T05:57:38;100834.69;;;12.11
81657;BMP280;71067;51.482;-0.580;2024-02-16T06:00:05;100818.50;;;12.01
81657;BMP280;71067;51.482;-0.580;2024-02-16T06:02:34;100841.81;;;12.09
81657;BMP280;71067;51.482;-0.580;2024-02-16T06:05:00;100849.63;;;12.09
81657;BMP280;71067;51.482;-0.580;2024-02-16T06:07:26;100860.28;;;12.14
81657;BMP280;71067;51.482;-0.580;2024-02-16T06:09:51;100829.56;;;11.87
81657;BMP280;71067;51.482;-0.580;2024-02-16T06:12:17;100856.31;;;11.87
81657;BMP280;71067;51.482;-0.580;2024-02-16T06:14:42;100852.25;;;11.93
81657;BMP280;71067;51.482;-0.580;2024-02-16T06:17:08;100859.53;;;11.89
81657;BMP280;71067;51.482;-0.580;2024-02-16T06:19:34;100875.91;;;11.98
81657;BMP280;71067;51.482;-0.580;2024-02-16T06:21:59;100876.88;;;11.97
81657;BMP280;71067;51.482;-0.580;2024-02-16T06:24:25;100833.94;;;11.70
81657;BMP280;71067;51.482;-0.580;2024-02-16T06:26:51;100850.97;;;11.73
81657;BMP280;71067;51.482;-0.580;2024-02-16T06:29:20;100833.94;;;11.62
81657;BMP280;71067;51.482;-0.580;2024-02-16T06:31:48;100893.78;;;11.85
81657;BMP280;71067;51.482;-0.580;2024-02-16T06:34:14;100856.63;;;11.60
81657;BMP280;71067;51.482;-0.580;2024-02-16T06:36:40;100900.56;;;11.78
81657;BMP280;71067;51.482;-0.580;2024-02-16T06:39:06;100876.56;;;11.60
81657;BMP280;71067;51.482;-0.580;2024-02-16T06:41:31;100913.22;;;11.73
81657;BMP280;71067;51.482;-0.580;2024-02-16T06:43:57;100849.34;;;11.32
81657;BMP280;71067;51.482;-0.580;2024-02-16T06:46:22;100879.81;;;11.46
81657;BMP280;71067;51.482;-0.580;2024-02-16T06:48:51;100867.81;;;11.29
81657;BMP280;71067;51.482;-0.580;2024-02-16T06:51:25;100873.81;;;11.29
81657;BMP280;71067;51.482;-0.580;2024-02-16T06:57:03;100946.25;;;11.55
81657;BMP280;71067;51.482;-0.580;2024-02-16T06:59:29;100874.78;;;11.12
81657;BMP280;71067;51.482;-0.580;2024-02-16T07:01:54;100927.09;;;11.32
81657;BMP280;71067;51.482;-0.580;2024-02-16T07:04:20;100920.25;;;11.23
81657;BMP280;71067;51.482;-0.580;2024-02-16T07:06:48;100939.56;;;11.20
81657;BMP280;71067;51.482;-0.580;2024-02-16T07:09:14;100966.81;;;11.32
81657;BMP280;71067;51.482;-0.580;2024-02-16T07:11:40;100957.34;;;11.23
81657;BMP280;71067;51.482;-0.580;2024-02-16T07:14:06;100949.41;;;11.08
81657;BMP280;71067;51.482;-0.580;2024-02-16T07:16:35;100958.13;;;11.07
81657;BMP280;71067;51.482;-0.580;2024-02-16T07:19:01;100959.44;;;11.03
81657;BMP280;71067;51.482;-0.580;2024-02-16T07:21:26;100989.72;;;11.11
81657;BMP280;71067;51.482;-0.580;2024-02-16T07:23:58;100976.19;;;10.91
81657;BMP280;71067;51.482;-0.580;2024-02-16T07:26:23;100962.72;;;10.80
81657;BMP280;71067;51.482;-0.580;2024-02-16T07:28:49;100972.41;;;10.78
81657;BMP280;71067;51.482;-0.580;2024-02-16T07:31:14;101050.47;;;11.17
81657;BMP280;71067;51.482;-0.580;2024-02-16T07:33:53;100987.75;;;10.71
81657;BMP280;71067;51.482;-0.580;2024-02-16T07:36:18;100994.56;;;10.72
81657;BMP280;71067;51.482;-0.580;2024-02-16T07:38:44;101024.72;;;10.81
81657;BMP280;71067;51.482;-0.580;2024-02-16T07:41:09;101067.47;;;11.11
81657;BMP280;71067;51.482;-0.580;2024-02-16T07:43:35;101076.06;;;11.12
81657;BMP280;71067;51.482;-0.580;2024-02-16T07:46:00;101031.53;;;10.82
81657;BMP280;71067;51.482;-0.580;2024-02-16T07:48:26;101050.66;;;10.89
81657;BMP280;71067;51.482;-0.580;2024-02-16T07:50:51;101043.47;;;10.75
81657;BMP280;71067;51.482;-0.580;2024-02-16T07:53:17;101016.78;;;10.57
81657;BMP280;71067;51.482;-0.580;2024-02-16T07:55:46;101031.53;;;10.57
81657;BMP280;71067;51.482;-0.580;2024-02-16T07:58:22;101100.50;;;10.91
81657;BMP280;71067;51.482;-0.580;2024-02-16T08:00:50;101064.13;;;10.67
81657;BMP280;71067;51.482;-0.580;2024-02-16T08:03:32;101056.44;;;10.58
81657;BMP280;71067;51.482;-0.580;2024-02-16T08:05:59;101094.25;;;10.76
81657;BMP280;71067;51.482;-0.580;2024-02-16T08:08:24;101079.94;;;10.64
81657;BMP280;71067;51.482;-0.580;2024-02-16T08:10:50;101074.56;;;10.58
81657;BMP280;71067;51.482;-0.580;2024-02-16T08:13:17;101065.25;;;10.47
81657;BMP280;71067;51.482;-0.580;2024-02-16T08:15:56;101079.53;;;10.51
81657;BMP280;71067;51.482;-0.580;2024-02-16T08:18:24;101094.06;;;10.52
81657;BMP280;71067;51.482;-0.580;2024-02-16T08:20:50;101150.34;;;10.85
81657;BMP280;71067;51.482;-0.580;2024-02-16T08:23:18;101157.28;;;10.85
81657;BMP280;71067;51.482;-0.580;2024-02-16T08:25:45;101159.06;;;10.84
81657;BMP280;71067;51.482;-0.580;2024-02-16T08:28:16;101167.81;;;10.83
81657;BMP280;71067;51.482;-0.580;2024-02-16T08:30:57;101134.09;;;10.58
81657;BMP280;71067;51.482;-0.580;2024-02-16T08:33:25;101099.44;;;10.33
81657;BMP280;71067;51.482;-0.580;2024-02-16T08:35:54;101105.09;;;10.37
81657;BMP280;71067;51.482;-0.580;2024-02-16T08:38:20;101184.47;;;10.81
81657;BMP280;71067;51.482;-0.580;2024-02-16T08:40:45;101147.75;;;10.60
81657;BMP280;71067;51.482;-0.580;2024-02-16T08:43:12;101116.94;;;10.39
81657;BMP280;71067;51.482;-0.580;2024-02-16T08:45:37;101177.06;;;10.68
81657;BMP280;71067;51.482;-0.580;2024-02-16T08:48:03;101157.97;;;10.52
81657;BMP280;71067;51.482;-0.580;2024-02-16T08:50:31;101167.91;;;10.56
81657;BMP280;71067;51.482;-0.580;2024-02-16T08:53:00;101214.81;;;10.88
81657;BMP280;71067;51.482;-0.580;2024-02-16T08:55:25;101195.06;;;10.70
81657;BMP280;71067;51.482;-0.580;2024-02-16T08:57:51;101152.28;;;10.48
81657;BMP280;71067;51.482;-0.580;2024-02-16T09:00:17;101165.59;;;10.53
81657;BMP280;71067;51.482;-0.580;2024-02-16T09:02:44;101195.91;;;10.78
81657;BMP280;71067;51.482;-0.580;2024-02-16T09:05:12;101181.41;;;10.68
81657;BMP280;71067;51.482;-0.580;2024-02-16T09:07:42;101235.00;;;11.02
81657;BMP280;71067;51.482;-0.580;2024-02-16T09:10:16;101199.22;;;10.80
81657;BMP280;71067;51.482;-0.580;2024-02-16T09:12:42;101178.19;;;10.66
81657;BMP280;71067;51.482;-0.580;2024-02-16T09:15:08;101206.81;;;10.82
81657;BMP280;71067;51.482;-0.580;2024-02-16T09:17:33;101193.41;;;10.69
81657;BMP280;71067;51.482;-0.580;2024-02-16T09:20:01;101225.59;;;10.84
81657;BMP280;71067;51.482;-0.580;2024-02-16T09:22:29;101188.97;;;10.61
81657;BMP280;71067;51.482;-0.580;2024-02-16T09:24:58;101231.22;;;10.79
81657;BMP280;71067;51.482;-0.580;2024-02-16T09:27:56;101212.00;;;10.64
81657;BMP280;71067;51.482;-0.580;2024-02-16T09:30:24;101287.47;;;11.04
81657;BMP280;71067;51.482;-0.580;2024-02-16T09:32:49;101219.75;;;10.64
81657;BMP280;71067;51.482;-0.580;2024-02-16T09:35:37;101260.06;;;10.84
81657;BMP280;71067;51.482;-0.580;2024-02-16T09:38:06;101293.00;;;11.09
81657;BMP280;71067;51.482;-0.580;2024-02-16T09:40:37;101237.63;;;10.67
81657;BMP280;71067;51.482;-0.580;2024-02-16T09:43:04;101280.88;;;10.92
81657;BMP280;71067;51.482;-0.580;2024-02-16T09:45:33;101257.59;;;10.75
81657;BMP280;71067;51.482;-0.580;2024-02-16T09:48:04;101287.00;;;10.91
81657;BMP280;71067;51.482;-0.580;2024-02-16T09:50:38;101304.13;;;11.02
81657;BMP280;71067;51.482;-0.580;2024-02-16T09:53:07;101309.66;;;11.07
81657;BMP280;71067;51.482;-0.580;2024-02-16T09:55:38;101304.81;;;11.04
81657;BMP280;71067;51.482;-0.580;2024-02-16T09:58:09;101283.66;;;10.91
81657;BMP280;71067;51.482;-0.580;2024-02-16T10:00:48;101281.06;;;10.91
81657;BMP280;71067;51.482;-0.580;2024-02-16T10:03:30;101313.69;;;11.19
81657;BMP280;71067;51.482;-0.580;2024-02-16T10:06:06;101361.00;;;11.39
81657;BMP280;71067;51.482;-0.580;2024-02-16T10:08:32;101302.34;;;11.02
81657;BMP280;71067;51.482;-0.580;2024-02-16T10:11:07;101337.38;;;11.24
81657;BMP280;71067;51.482;-0.580;2024-02-16T10:13:33;101312.13;;;11.08
81657;BMP280;71067;51.482;-0.580;2024-02-16T10:16:11;101387.63;;;11.58
81657;BMP280;71067;51.482;-0.580;2024-02-16T10:18:47;101395.75;;;11.63
81657;BMP280;71067;51.482;-0.580;2024-02-16T10:21:13;101331.44;;;11.32
81657;BMP280;71067;51.482;-0.580;2024-02-16T10:23:38;101340.19;;;11.31
81657;BMP280;71067;51.482;-0.580;2024-02-16T10:26:04;101360.13;;;11.48
81657;BMP280;71067;51.482;-0.580;2024-02-16T10:28:32;101371.22;;;11.58
81657;BMP280;71067;51.482;-0.580;2024-02-16T10:30:59;101364.63;;;11.63
81657;BMP280;71067;51.482;-0.580;2024-02-16T10:33:33;101403.75;;;11.87
81657;BMP280;71067;51.482;-0.580;2024-02-16T10:36:00;101372.81;;;11.76
81657;BMP280;71067;51.482;-0.580;2024-02-16T10:38:31;101337.94;;;11.53
81657;BMP280;71067;51.482;-0.580;2024-02-16T10:40:57;101410.56;;;11.96
81657;BMP280;71067;51.482;-0.580;2024-02-16T10:43:25;101402.25;;;11.85
81657;BMP280;71067;51.482;-0.580;2024-02-16T10:45:51;101392.31;;;11.80
81657;BMP280;71067;51.482;-0.580;2024-02-16T10:48:18;101402.78;;;11.96
81657;BMP280;71067;51.482;-0.580;2024-02-16T10:50:44;101357.50;;;11.65
81657;BMP280;71067;51.482;-0.580;2024-02-16T10:53:24;101399.09;;;11.99
81657;BMP280;71067;51.482;-0.580;2024-02-16T10:55:51;101349.13;;;11.71
81657;BMP280;71067;51.482;-0.580;2024-02-16T10:58:17;101435.06;;;12.20
81657;BMP280;71067;51.482;-0.580;2024-02-16T11:00:53;101387.34;;;11.87
81657;BMP280;71067;51.482;-0.580;2024-02-16T11:03:26;101387.34;;;11.87
81657;BMP280;71067;51.482;-0.580;2024-02-16T11:05:52;101370.81;;;11.96
81657;BMP280;71067;51.482;-0.580;2024-02-16T11:08:24;101395.59;;;12.08
81657;BMP280;71067;51.482;-0.580;2024-02-16T11:11:00;101443.81;;;12.44
81657;BMP280;71067;51.482;-0.580;2024-02-16T11:13:31;101462.06;;;12.52
81657;BMP280;71067;51.482;-0.580;2024-02-16T11:16:09;101400.97;;;12.15
81657;BMP280;71067;51.482;-0.580;2024-02-16T11:18:45;101416.13;;;12.27
81657;BMP280;71067;51.482;-0.580;2024-02-16T11:21:15;101404.13;;;12.26
81657;BMP280;71067;51.482;-0.580;2024-02-16T11:23:42;101426.63;;;12.43
81657;BMP280;71067;51.482;-0.580;2024-02-16T11:26:12;101422.03;;;12.37
81657;BMP280;71067;51.482;-0.580;2024-02-16T11:32:25;101436.06;;;12.52
81657;BMP280;71067;51.482;-0.580;2024-02-16T11:34:51;101448.28;;;12.60
81657;BMP280;71067;51.482;-0.580;2024-02-16T11:37:16;101432.84;;;12.50
81657;BMP280;71067;51.482;-0.580;2024-02-16T11:39:42;101422.09;;;12.45
81657;BMP280;71067;51.482;-0.580;2024-02-16T11:42:12;101418.06;;;12.51
81657;BMP280;71067;51.482;-0.580;2024-02-16T11:44:49;101426.63;;;12.51
81657;BMP280;71067;51.482;-0.580;2024-02-16T11:47:22;101426.63;;;12.51
81657;BMP280;71067;51.482;-0.580;2024-02-16T11:50:19;101445.88;;;12.66
81657;BMP280;71067;51.482;-0.580;2024-02-16T11:52:46;101448.34;;;12.68
81657;BMP280;71067;51.482;-0.580;2024-02-16T11:55:12;101426.41;;;12.62
81657;BMP280;71067;51.482;-0.580;2024-02-16T11:57:40;101444.81;;;12.77
81657;BMP280;71067;51.482;-0.580;2024-02-16T12:00:06;101498.22;;;13.21
81657;BMP280;71067;51.482;-0.580;2024-02-16T12:02:37;101440.63;;;12.84
81657;BMP280;71067;51.482;-0.580;2024-02-16T12:05:06;101510.47;;;13.29
81657;BMP280;71067;51.482;-0.580;2024-02-16T12:07:43;101453.50;;;13.02
81657;BMP280;71067;51.482;-0.580;2024-02-16T12:10:10;101450.56;;;12.97
81657;BMP280;71067;51.482;-0.580;2024-02-16T12:12:36;101472.56;;;13.10
81657;BMP280;71067;51.482;-0.580;2024-02-16T12:15:08;101469.25;;;13.08
81657;BMP280;71067;51.482;-0.580;2024-02-16T12:18:05;101453.31;;;12.95
81657;BMP280;71067;51.482;-0.580;2024-02-16T12:21:03;101530.31;;;13.38
81657;BMP280;71067;51.482;-0.580;2024-02-16T12:23:36;101442.41;;;12.91
81657;BMP280;71067;51.482;-0.580;2024-02-16T12:28:45;101459.16;;;12.89
81657;BMP280;71067;51.482;-0.580;2024-02-16T12:31:18;101490.25;;;13.15
81657;BMP280;71067;51.482;-0.580;2024-02-16T12:33:47;101449.91;;;12.94
81657;BMP280;71067;51.482;-0.580;2024-02-16T12:36:23;101451.84;;;13.01
81657;BMP280;71067;51.482;-0.580;2024-02-16T12:38:49;101473.84;;;13.14
81657;BMP280;71067;51.482;-0.580;2024-02-16T12:41:15;101463.28;;;13.08
81657;BMP280;71067;51.482;-0.580;2024-02-16T12:43:41;101469.44;;;13.07
81657;BMP280;71067;51.482;-0.580;2024-02-16T12:46:08;101506.53;;;13.25
81657;BMP280;71067;51.482;-0.580;2024-02-16T12:48:34;101526.25;;;13.35
81657;BMP280;71067;51.482;-0.580;2024-02-16T12:51:00;101518.25;;;13.21
81657;BMP280;71067;51.482;-0.580;2024-02-16T12:53:29;101515.13;;;13.17
81657;BMP280;71067;51.482;-0.580;2024-02-16T12:56:09;101507.50;;;13.16
81657;BMP280;71067;51.482;-0.580;2024-02-16T12:58:36;101462.56;;;12.89
81657;BMP280;71067;51.482;-0.580;2024-02-16T13:01:05;101466.28;;;12.87
81657;BMP280;71067;51.482;-0.580;2024-02-16T13:03:34;101538.25;;;13.28
81657;BMP280;71067;51.482;-0.580;2024-02-16T13:06:01;101464.81;;;12.84
81657;BMP280;71067;51.482;-0.580;2024-02-16T13:08:27;101466.28;;;12.87
81657;BMP280;71067;51.482;-0.580;2024-02-16T13:10:52;101539.44;;;13.42
81657;BMP280;71067;51.482;-0.580;2024-02-16T13:13:18;101483.25;;;13.07
81657;BMP280;71067;51.482;-0.580;2024-02-16T13:19:13;101503.25;;;13.15
81657;BMP280;71067;51.482;-0.580;2024-02-16T13:21:38;101508.63;;;13.13
81657;BMP280;71067;51.482;-0.580;2024-02-16T13:24:07;101502.59;;;13.13
81657;BMP280;71067;51.482;-0.580;2024-02-16T13:26:36;101500.97;;;13.12
81657;BMP280;71067;51.482;-0.580;2024-02-16T13:29:12;101585.00;;;13.62
81657;BMP280;71067;51.482;-0.580;2024-02-16T13:31:45;101524.59;;;13.26
81657;BMP280;71067;51.482;-0.580;2024-02-16T13:34:29;101508.66;;;13.29
81657;BMP280;71067;51.482;-0.580;2024-02-16T13:36:58;101509.31;;;13.31
81657;BMP280;71067;51.482;-0.580;2024-02-16T13:39:25;101553.78;;;13.54
81657;BMP280;71067;51.482;-0.580;2024-02-16T13:41:52;101585.38;;;13.75
81657;BMP280;71067;51.482;-0.580;2024-02-16T13:44:42;101590.06;;;13.71
81657;BMP280;71067;51.482;-0.580;2024-02-16T13:47:11;101530.94;;;13.32
81657;BMP280;71067;51.482;-0.580;2024-02-16T13:49:42;101530.75;;;13.25
81657;BMP280;71067;51.482;-0.580;2024-02-16T13:52:15;101573.28;;;13.50
81657;BMP280;71067;51.482;-0.580;2024-02-16T13:54:46;101559.25;;;13.35
81657;BMP280;71067;51.482;-0.580;2024-02-16T13:57:22;101582.38;;;13.46
81657;BMP280;71067;51.482;-0.580;2024-02-16T13:59:50;101613.63;;;13.62
81657;BMP280;71067;51.482;-0.580;2024-02-16T14:02:16;101572.25;;;13.35
81657;BMP280;71067;51.482;-0.580;2024-02-16T14:04:42;101561.47;;;13.22
81657;BMP280;71067;51.482;-0.580;2024-02-16T14:07:14;101555.94;;;13.17
81657;BMP280;71067;51.482;-0.580;2024-02-16T14:09:39;101590.47;;;13.43
81657;BMP280;71067;51.482;-0.580;2024-02-16T14:12:07;101592.09;;;13.36
81657;BMP280;71067;51.482;-0.580;2024-02-16T14:14:37;101599.72;;;13.37
81657;BMP280;71067;51.482;-0.580;2024-02-16T14:17:32;101626.63;;;13.54
81657;BMP280;71067;51.482;-0.580;2024-02-16T14:19:58;101623.06;;;13.55
81657;BMP280;71067;51.482;-0.580;2024-02-16T14:22:26;101603.09;;;13.30
81657;BMP280;71067;51.482;-0.580;2024-02-16T14:24:51;101612.09;;;13.35
81657;BMP280;71067;51.482;-0.580;2024-02-16T14:27:26;101575.19;;;13.06
81657;BMP280;71067;51.482;-0.580;2024-02-16T14:29:52;101634.31;;;13.30
81657;BMP280;71067;51.482;-0.580;2024-02-16T14:32:17;101654.72;;;13.42